createdAt,value
2023-06-08T00:02:26.637Z,97445.53
2023-06-08T00:04:54.223Z,97452.88
2023-06-08T00:07:23.327Z,97465.63
2023-06-08T00:09:52.304Z,97444.03
2023-06-08T00:12:19.393Z,97452.41
2023-06-08T00:14:46.972Z,97452.59
2023-06-08T00:17:15.040Z,97454.91
2023-06-08T00:19:44.167Z,97430.28
2023-06-08T00:22:15.027Z,97437.88
2023-06-08T00:24:41.786Z,97433.78
2023-06-08T00:27:10.192Z,97434.78
2023-06-08T00:29:36.824Z,97431.13
2023-06-08T00:32:04.042Z,97422.09
2023-06-08T00:34:30.927Z,97416.78
2023-06-08T00:36:57.529Z,97409.78
2023-06-08T00:39:24.274Z,97404.44
2023-06-08T00:41:50.935Z,97397.13
2023-06-08T00:44:17.437Z,97387.69
2023-06-08T00:46:44.372Z,97369.75
2023-06-08T00:49:17.233Z,97363.91
2023-06-08T00:51:44.910Z,97367.19
2023-06-08T00:54:14.115Z,97355.91
2023-06-08T00:56:42.194Z,97350.75
2023-06-08T00:59:11.278Z,97356.94
2023-06-08T01:01:40.221Z,97352.81
2023-06-08T01:04:07.531Z,97347.34
2023-06-08T01:06:40.664Z,97332.31
2023-06-08T01:09:26.634Z,97336.84
2023-06-08T01:12:02.277Z,97330.97
2023-06-08T01:14:39.803Z,97312.72
2023-06-08T01:17:13.869Z,97304.53
2023-06-08T01:20:06.623Z,97313.13
2023-06-08T01:22:53.084Z,97304.53
2023-06-08T01:25:21.734Z,97318.41
2023-06-08T01:27:49.444Z,97336.38
2023-06-08T01:30:16.357Z,97349.56
2023-06-08T01:32:45.060Z,97346.97
2023-06-08T01:35:11.956Z,97332.91
2023-06-08T01:37:46.510Z,97314.41
2023-06-08T01:40:25.737Z,97323.91
2023-06-08T01:42:55.018Z,97289.09
2023-06-08T01:45:24.519Z,97281.69
2023-06-08T01:47:58.086Z,97255.53
2023-06-08T01:50:25.528Z,97234.13
2023-06-08T01:52:52.503Z,97232.66
2023-06-08T01:55:20.983Z,97243.56
2023-06-08T01:57:48.264Z,97254.44
2023-06-08T02:00:17.537Z,97238.25
2023-06-08T02:02:45.896Z,97231.53
2023-06-08T02:05:15.683Z,97209.63
2023-06-08T02:07:43.306Z,97213.84
2023-06-08T02:10:11.112Z,97231.50
2023-06-08T02:12:38.275Z,97249.31
2023-06-08T02:15:05.574Z,97231.38
2023-06-08T02:17:34.767Z,97228.47
2023-06-08T02:20:06.730Z,97232.97
2023-06-08T02:22:36.638Z,97229.28
2023-06-08T02:25:08.955Z,97253.06
2023-06-08T02:27:38.207Z,97257.94
2023-06-08T02:30:10.426Z,97271.16
2023-06-08T02:32:38.219Z,97245.53
2023-06-08T02:35:06.205Z,97248.47
2023-06-08T02:37:34.275Z,97263.66
2023-06-08T02:40:02.266Z,97261.69
2023-06-08T02:42:29.148Z,97255.53
2023-06-08T02:44:56.167Z,97234.25
2023-06-08T02:47:22.817Z,97179.59
2023-06-08T02:49:49.543Z,97134.16
2023-06-08T02:52:16.173Z,97108.78
2023-06-08T02:54:42.737Z,97095.19
2023-06-08T02:57:09.542Z,97119.28
2023-06-08T02:59:37.754Z,97126.28
2023-06-08T03:02:05.137Z,97108.38
2023-06-08T03:04:31.805Z,97092.16
2023-06-08T03:06:58.623Z,97100.50
2023-06-08T03:09:26.544Z,97103.06
2023-06-08T03:11:53.412Z,97078.50
2023-06-08T03:14:20.084Z,97056.69
2023-06-08T03:16:47.596Z,97059.66
2023-06-08T03:19:15.718Z,97058.03
2023-06-08T03:21:43.650Z,97054.72
2023-06-08T03:24:11.642Z,97063.06
2023-06-08T03:26:39.639Z,97079.22
2023-06-08T03:29:06.234Z,97084.75
2023-06-08T03:31:38.275Z,97096.84
2023-06-08T03:34:06.314Z,97068.25
2023-06-08T03:36:36.584Z,97094.47
2023-06-08T03:39:04.080Z,97081.81
2023-06-08T03:41:30.593Z,97077.75
2023-06-08T03:43:57.446Z,97076.13
2023-06-08T03:46:25.373Z,97059.13
2023-06-08T03:48:52.438Z,97061.97
2023-06-08T03:51:22.109Z,97035.97
2023-06-08T03:53:49.323Z,97052.16
2023-06-08T03:56:16.165Z,97048.31
2023-06-08T03:58:43.063Z,97050.34
2023-06-08T04:01:13.332Z,97038.91
2023-06-08T04:03:40.961Z,97041.53
2023-06-08T04:06:10.155Z,97057.28
2023-06-08T04:08:40.507Z,97059.09
2023-06-08T04:11:10.072Z,97074.25
2023-06-08T04:13:37.824Z,97076.91
2023-06-08T04:16:08.511Z,97068.31
2023-06-08T04:18:36.376Z,97063.38
2023-06-08T04:21:06.005Z,97076.03
2023-06-08T04:23:34.732Z,97084.16
2023-06-08T04:26:06.339Z,97091.69
2023-06-08T04:28:34.466Z,97111.28
2023-06-08T04:31:01.320Z,97133.13
2023-06-08T04:33:31.917Z,97133.16
2023-06-08T04:35:58.906Z,97148.25
2023-06-08T04:38:26.975Z,97159.84
2023-06-08T04:40:55.382Z,97169.41
2023-06-08T04:43:23.165Z,97190.91
2023-06-08T04:46:00.944Z,97206.16
2023-06-08T04:48:28.876Z,97213.53
2023-06-08T04:51:05.635Z,97217.19
2023-06-08T04:53:35.466Z,97237.78
2023-06-08T04:56:03.972Z,97245.44
2023-06-08T04:58:31.980Z,97242.41
2023-06-08T05:00:59.421Z,97241.31
2023-06-08T05:03:26.980Z,97238.84
2023-06-08T05:05:54.136Z,97239.25
2023-06-08T05:08:20.788Z,97243.38
2023-06-08T05:10:47.349Z,97241.06
2023-06-08T05:13:13.937Z,97225.31
2023-06-08T05:15:40.701Z,97226.06
2023-06-08T05:18:07.525Z,97233.66
2023-06-08T05:20:34.137Z,97246.06
2023-06-08T05:23:00.790Z,97246.03
2023-06-08T05:25:38.004Z,97255.75
2023-06-08T05:28:05.871Z,97271.72
2023-06-08T05:30:32.422Z,97272.88
2023-06-08T05:33:01.178Z,97283.25
2023-06-08T05:35:28.139Z,97297.25
2023-06-08T05:37:55.050Z,97298.47
2023-06-08T05:40:21.818Z,97316.38
2023-06-08T05:42:48.438Z,97323.19
2023-06-08T05:45:15.109Z,97331.91
2023-06-08T05:47:41.833Z,97333.31
2023-06-08T05:50:09.187Z,97359.25
2023-06-08T05:52:36.035Z,97352.53
2023-06-08T05:55:03.018Z,97370.91
2023-06-08T05:57:29.674Z,97411.03
2023-06-08T05:59:56.366Z,97400.91
2023-06-08T06:02:22.940Z,97335.38
2023-06-08T06:04:49.831Z,97341.94
2023-06-08T06:07:16.799Z,97334.97
2023-06-08T06:09:43.407Z,97350.31
2023-06-08T06:12:10.528Z,97365.06
2023-06-08T06:14:39.505Z,97367.47
2023-06-08T06:17:08.127Z,97397.94
2023-06-08T06:19:38.477Z,97361.06
2023-06-08T06:22:11.166Z,97385.88
2023-06-08T06:24:38.527Z,97396.13
2023-06-08T06:27:06.604Z,97384.03
2023-06-08T06:29:33.931Z,97374.75
2023-06-08T06:32:00.758Z,97371.00
2023-06-08T06:34:27.470Z,97409.19
2023-06-08T06:36:54.967Z,97439.09
2023-06-08T06:39:21.528Z,97461.25
2023-06-08T06:41:50.255Z,97456.59
2023-06-08T06:44:17.059Z,97516.53
2023-06-08T06:46:46.600Z,97609.03
2023-06-08T06:49:13.228Z,97679.47
2023-06-08T06:51:41.737Z,97729.31
2023-06-08T06:54:08.430Z,97697.44
2023-06-08T06:56:35.126Z,97750.06
2023-06-08T06:59:01.976Z,97704.44
2023-06-08T07:01:29.581Z,97728.25
2023-06-08T07:03:56.196Z,97707.63
2023-06-08T07:06:25.663Z,97669.56
2023-06-08T07:08:52.684Z,97724.91
2023-06-08T07:11:19.283Z,97755.25
2023-06-08T07:13:45.851Z,97789.44
2023-06-08T07:16:12.581Z,97839.75
2023-06-08T07:18:39.461Z,97810.84
2023-06-08T07:21:06.555Z,97797.63
2023-06-08T07:24:37.971Z,97871.13
2023-06-08T07:26:28.565Z,97864.31
2023-06-08T07:28:58.705Z,97977.97
2023-06-08T07:31:28.157Z,98108.81
2023-06-08T07:33:58.891Z,98047.00
2023-06-08T07:36:26.232Z,97996.81
2023-06-08T07:38:52.808Z,97932.81
2023-06-08T07:41:19.783Z,98013.97
2023-06-08T07:43:47.008Z,98051.09
2023-06-08T07:46:14.547Z,98243.66
2023-06-08T07:48:41.096Z,98408.41
2023-06-08T07:51:07.746Z,98474.31
2023-06-08T07:53:40.808Z,98395.66
2023-06-08T07:56:07.993Z,98543.13
2023-06-08T07:58:34.597Z,98651.88
2023-06-08T08:01:01.727Z,98787.31
2023-06-08T08:03:29.449Z,98831.03
2023-06-08T08:05:56.827Z,98818.28
2023-06-08T08:08:23.543Z,98864.88
2023-06-08T08:10:50.367Z,98858.94
2023-06-08T08:13:16.924Z,98919.69
2023-06-08T08:15:43.862Z,98892.28
2023-06-08T08:18:10.746Z,98915.91
2023-06-08T08:20:37.777Z,98941.41
2023-06-08T08:23:04.296Z,98930.91
2023-06-08T08:25:30.857Z,98961.53
2023-06-08T08:27:57.437Z,98965.03
2023-06-08T08:30:24.176Z,98968.03
2023-06-08T08:32:50.774Z,99021.00
2023-06-08T08:35:17.462Z,99056.53
2023-06-08T08:37:44.726Z,99054.16
2023-06-08T08:40:12.883Z,99077.63
2023-06-08T08:42:45.354Z,99049.13
2023-06-08T08:45:14.872Z,99010.19
2023-06-08T08:47:43.215Z,99072.06
2023-06-08T08:50:18.688Z,99060.88
2023-06-08T08:52:54.441Z,99066.13
2023-06-08T08:55:35.319Z,99063.59
2023-06-08T08:58:03.992Z,99055.72
2023-06-08T09:00:34.246Z,99060.50
2023-06-08T09:03:02.500Z,99078.44
2023-06-08T09:05:29.253Z,99075.06
2023-06-08T09:07:57.460Z,99087.66
2023-06-08T09:10:27.111Z,99086.28
2023-06-08T09:12:58.672Z,99076.97
2023-06-08T09:15:38.948Z,99096.22
2023-06-08T09:18:17.508Z,99093.28
2023-06-08T09:20:44.194Z,99106.44
2023-06-08T09:23:24.579Z,99065.91
2023-06-08T09:25:53.619Z,99094.88
2023-06-08T09:28:29.754Z,99092.84
2023-06-08T09:31:01.918Z,99087.31
2023-06-08T09:33:30.985Z,99089.53
2023-06-08T09:35:57.703Z,99093.16
2023-06-08T09:38:28.335Z,99082.81
2023-06-08T09:41:25.164Z,99096.38
2023-06-08T09:43:52.706Z,99084.66
2023-06-08T09:46:46.939Z,99078.25
2023-06-08T09:49:15.132Z,99080.38
2023-06-08T09:51:52.159Z,99064.78
2023-06-08T09:54:21.826Z,99081.03
2023-06-08T09:56:54.430Z,99043.50
2023-06-08T09:59:23.653Z,99062.13
2023-06-08T10:01:57.108Z,99057.16
2023-06-08T10:04:36.640Z,99046.50
2023-06-08T10:07:06.497Z,99051.72
2023-06-08T10:09:37.039Z,99062.50
2023-06-08T10:12:04.079Z,99060.38
2023-06-08T10:14:32.838Z,99062.50
2023-06-08T10:17:01.513Z,99061.63
2023-06-08T10:19:28.225Z,99062.09
2023-06-08T10:21:57.151Z,99064.28
2023-06-08T10:24:26.291Z,99072.16
2023-06-08T10:27:09.076Z,99064.75
2023-06-08T10:29:35.938Z,99071.19
2023-06-08T10:32:07.099Z,99064.72
2023-06-08T10:34:41.851Z,99058.03
2023-06-08T10:37:28.124Z,99067.56
2023-06-08T10:39:55.931Z,99069.50
2023-06-08T10:42:22.622Z,99054.75
2023-06-08T10:44:59.194Z,99067.19
2023-06-08T10:47:27.093Z,99055.97
2023-06-08T10:50:04.204Z,99064.81
2023-06-08T10:52:40.993Z,99075.78
2023-06-08T10:55:13.349Z,99078.22
2023-06-08T10:57:47.110Z,99078.81
2023-06-08T11:00:32.386Z,99068.63
2023-06-08T11:03:05.278Z,99071.66
2023-06-08T11:05:36.905Z,99066.88
2023-06-08T11:08:05.555Z,99062.47
2023-06-08T11:10:33.753Z,99056.34
2023-06-08T11:13:12.286Z,99051.59
2023-06-08T11:15:43.901Z,99044.97
2023-06-08T11:18:12.048Z,99056.69
2023-06-08T11:20:43.059Z,99040.69
2023-06-08T11:23:12.222Z,99039.91
2023-06-08T11:25:39.880Z,99045.31
2023-06-08T11:28:09.086Z,99038.91
2023-06-08T11:30:38.684Z,99035.03
2023-06-08T11:33:07.579Z,99032.50
2023-06-08T11:35:35.335Z,99035.81
2023-06-08T11:38:02.962Z,99034.06
2023-06-08T11:40:31.347Z,99022.69
2023-06-08T11:42:58.449Z,99034.28
2023-06-08T11:45:25.595Z,99017.09
2023-06-08T11:48:13.922Z,99014.56
2023-06-08T11:50:52.245Z,99010.34
2023-06-08T11:53:29.415Z,99016.44
2023-06-08T11:55:56.895Z,99011.88
2023-06-08T11:58:29.447Z,99005.31
2023-06-08T12:01:10.481Z,98999.97
2023-06-08T12:03:49.005Z,98979.44
2023-06-08T12:06:17.315Z,98972.50
2023-06-08T12:08:44.802Z,98996.28
2023-06-08T12:11:13.339Z,98994.50
2023-06-08T12:13:41.222Z,99000.94
2023-06-08T12:16:09.807Z,98995.84
2023-06-08T12:18:44.500Z,98979.41
2023-06-08T12:21:16.898Z,98977.75
2023-06-08T12:23:44.867Z,98968.66
2023-06-08T12:26:12.158Z,98957.00
2023-06-08T12:28:40.195Z,98969.66
2023-06-08T12:31:07.020Z,98970.47
2023-06-08T12:33:34.514Z,98960.66
2023-06-08T12:36:02.505Z,98969.16
2023-06-08T12:38:29.805Z,98968.88
2023-06-08T12:40:57.888Z,98953.00
2023-06-08T12:43:24.626Z,98962.28
2023-06-08T12:45:51.651Z,98952.53
2023-06-08T12:48:18.757Z,98957.09
2023-06-08T12:50:45.944Z,98960.38
2023-06-08T12:53:12.743Z,98958.31
2023-06-08T12:55:39.400Z,98964.50
2023-06-08T12:58:06.083Z,98942.22
2023-06-08T13:00:32.562Z,98941.31
2023-06-08T13:02:59.704Z,98941.03
2023-06-08T13:05:27.088Z,98933.66
2023-06-08T13:07:54.044Z,98946.09
2023-06-08T13:10:21.501Z,98935.78
2023-06-08T13:12:49.812Z,98932.94
2023-06-08T13:15:16.711Z,98940.47
2023-06-08T13:17:43.410Z,98944.19
2023-06-08T13:20:11.760Z,98932.78
2023-06-08T13:22:39.045Z,98932.88
2023-06-08T13:25:06.672Z,98933.53
2023-06-08T13:27:33.405Z,98914.97
2023-06-08T13:30:01.268Z,98918.78
2023-06-08T13:32:32.424Z,98917.53
2023-06-08T13:34:59.042Z,98915.72
2023-06-08T13:37:25.778Z,98920.84
2023-06-08T13:39:53.608Z,98907.09
2023-06-08T13:42:21.766Z,98901.94
2023-06-08T13:44:48.959Z,98900.97
2023-06-08T13:47:15.649Z,98892.22
2023-06-08T13:49:43.981Z,98884.75
2023-06-08T13:52:14.315Z,98901.38
2023-06-08T13:54:41.237Z,98878.94
2023-06-08T13:57:08.248Z,98884.06
2023-06-08T13:59:35.529Z,98866.38
2023-06-08T14:02:04.786Z,98875.78
2023-06-08T14:04:32.169Z,98880.56
2023-06-08T14:06:58.820Z,98869.38
2023-06-08T14:09:25.483Z,98882.47
2023-06-08T14:11:52.069Z,98868.53
2023-06-08T14:14:18.759Z,98868.00
2023-06-08T14:16:45.897Z,98864.91
2023-06-08T14:19:13.942Z,98848.81
2023-06-08T14:21:41.522Z,98864.63
2023-06-08T14:24:08.979Z,98870.13
2023-06-08T14:26:36.264Z,98867.03
2023-06-08T14:29:04.373Z,98858.97
2023-06-08T14:31:31.251Z,98867.25
2023-06-08T14:33:58.394Z,98867.97
2023-06-08T14:36:25.610Z,98875.53
2023-06-08T14:38:52.775Z,98879.63
2023-06-08T14:41:20.202Z,98871.25
2023-06-08T14:43:52.023Z,98869.03
2023-06-08T14:46:19.800Z,98878.78
2023-06-08T14:48:46.491Z,98871.59
2023-06-08T14:51:28.420Z,98886.13
2023-06-08T14:54:01.961Z,98882.47
2023-06-08T14:56:28.637Z,98896.94
2023-06-08T14:58:55.634Z,98890.38
2023-06-08T15:01:22.191Z,98881.56
2023-06-08T15:03:48.872Z,98886.91
2023-06-08T15:06:15.691Z,98881.84
2023-06-08T15:08:42.581Z,98889.59
2023-06-08T15:11:09.077Z,98887.41
2023-06-08T15:13:35.759Z,98881.88
2023-06-08T15:16:03.386Z,98894.13
2023-06-08T15:18:32.448Z,98884.72
2023-06-08T15:21:00.044Z,98884.00
2023-06-08T15:23:26.914Z,98879.59
2023-06-08T15:25:53.552Z,98884.69
2023-06-08T15:28:20.267Z,98875.16
2023-06-08T15:30:47.349Z,98875.53
2023-06-08T15:33:14.178Z,98879.06
2023-06-08T15:35:41.052Z,98874.00
2023-06-08T15:38:08.830Z,98870.97
2023-06-08T15:40:35.615Z,98869.78
2023-06-08T15:43:02.360Z,98866.81
2023-06-08T15:45:29.543Z,98861.19
2023-06-08T15:47:56.355Z,98859.81
2023-06-08T15:50:23.126Z,98857.75
2023-06-08T15:52:50.254Z,98847.16
2023-06-08T15:55:17.345Z,98844.75
2023-06-08T15:57:44.145Z,98838.41
2023-06-08T16:00:11.390Z,98845.59
2023-06-08T16:02:38.562Z,98829.03
2023-06-08T16:05:08.625Z,98829.50
2023-06-08T16:07:35.231Z,98810.91
2023-06-08T16:10:03.484Z,98841.84
2023-06-08T16:12:30.505Z,98823.75
2023-06-08T16:14:57.642Z,98834.44
2023-06-08T16:17:24.372Z,98835.59
2023-06-08T16:19:51.088Z,98826.91
2023-06-08T16:22:17.796Z,98827.47
2023-06-08T16:24:44.626Z,98825.69
2023-06-08T16:27:11.306Z,98825.31
2023-06-08T16:29:37.934Z,98822.63
2023-06-08T16:32:05.056Z,98813.41
2023-06-08T16:34:31.690Z,98801.50
2023-06-08T16:36:58.671Z,98808.66
2023-06-08T16:39:25.872Z,98807.56
2023-06-08T16:41:52.581Z,98801.69
2023-06-08T16:44:19.661Z,98800.00
2023-06-08T16:46:46.641Z,98797.22
2023-06-08T16:49:13.262Z,98791.59
2023-06-08T16:51:39.832Z,98797.47
2023-06-08T16:54:07.070Z,98815.47
2023-06-08T16:56:34.753Z,98818.16
2023-06-08T16:59:02.870Z,98808.03
2023-06-08T17:01:29.592Z,98819.88
2023-06-08T17:03:57.188Z,98809.50
2023-06-08T17:06:25.138Z,98805.72
2023-06-08T17:08:51.821Z,98801.38
2023-06-08T17:11:18.533Z,98799.88
2023-06-08T17:13:45.187Z,98798.09
2023-06-08T17:16:11.785Z,98808.78
2023-06-08T17:18:39.553Z,98815.13
2023-06-08T17:21:08.693Z,98812.41
2023-06-08T17:23:35.844Z,98813.16
2023-06-08T17:26:02.519Z,98799.72
2023-06-08T17:28:29.183Z,98810.53
2023-06-08T17:30:55.857Z,98824.19
2023-06-08T17:33:22.841Z,98822.31
2023-06-08T17:35:49.708Z,98816.78
2023-06-08T17:38:16.389Z,98828.34
2023-06-08T17:40:42.992Z,98821.53
2023-06-08T17:43:09.526Z,98827.88
2023-06-08T17:45:36.386Z,98824.22
2023-06-08T17:48:03.066Z,98831.16
2023-06-08T17:50:29.728Z,98825.63
2023-06-08T17:53:01.086Z,98831.41
2023-06-08T17:55:29.035Z,98825.50
2023-06-08T17:57:57.208Z,98821.16
2023-06-08T18:00:25.135Z,98838.31
2023-06-08T18:02:52.203Z,98826.66
2023-06-08T18:05:19.546Z,98838.28
2023-06-08T18:07:46.186Z,98838.41
2023-06-08T18:10:14.588Z,98825.94
2023-06-08T18:12:42.672Z,98831.78
2023-06-08T18:15:09.744Z,98827.34
2023-06-08T18:17:36.552Z,98830.75
2023-06-08T18:20:06.451Z,98821.44
2023-06-08T18:22:33.656Z,98830.75
2023-06-08T18:25:02.030Z,98841.56
2023-06-08T18:27:28.926Z,98830.75
2023-06-08T18:29:55.798Z,98831.97
2023-06-08T18:32:22.524Z,98821.41
2023-06-08T18:34:49.124Z,98832.22
2023-06-08T18:37:16.979Z,98822.81
2023-06-08T18:39:57.087Z,98814.91
2023-06-08T18:42:25.149Z,98822.47
2023-06-08T18:44:51.654Z,98823.38
2023-06-08T18:47:18.292Z,98819.00
2023-06-08T18:49:46.477Z,98814.94
2023-06-08T18:52:13.396Z,98807.09
2023-06-08T18:54:40.766Z,98819.16
2023-06-08T18:57:08.030Z,98816.16
2023-06-08T18:59:34.714Z,98812.31
2023-06-08T19:02:01.472Z,98812.19
2023-06-08T19:04:28.310Z,98818.97
2023-06-08T19:06:54.975Z,98822.72
2023-06-08T19:09:25.709Z,98816.81
2023-06-08T19:11:52.851Z,98824.03
2023-06-08T19:14:19.820Z,98829.03
2023-06-08T19:16:48.908Z,98829.88
2023-06-08T19:19:18.942Z,98859.41
2023-06-08T19:21:45.604Z,98862.47
2023-06-08T19:24:12.588Z,98872.00
2023-06-08T19:26:39.978Z,98865.41
2023-06-08T19:29:08.588Z,98878.59
2023-06-08T19:31:35.264Z,98876.38
2023-06-08T19:34:02.455Z,98864.25
2023-06-08T19:36:29.221Z,98875.78
2023-06-08T19:38:56.143Z,98880.41
2023-06-08T19:41:23.482Z,98886.88
2023-06-08T19:43:51.326Z,98887.38
2023-06-08T19:46:20.497Z,98880.09
2023-06-08T19:48:48.504Z,98889.63
2023-06-08T19:51:15.137Z,98889.44
2023-06-08T19:53:42.799Z,98878.84
2023-06-08T19:56:09.471Z,98879.50
2023-06-08T19:58:36.197Z,98866.88
2023-06-08T20:01:02.733Z,98861.56
2023-06-08T20:03:29.709Z,98869.66
2023-06-08T20:05:56.709Z,98861.59
2023-06-08T20:08:23.402Z,98841.59
2023-06-08T20:10:51.228Z,98835.25
2023-06-08T20:13:18.020Z,98806.38
2023-06-08T20:15:44.890Z,98787.16
2023-06-08T20:18:11.514Z,98760.91
2023-06-08T20:20:38.177Z,98708.03
2023-06-08T20:23:05.416Z,98697.69
2023-06-08T20:25:32.261Z,98686.75
2023-06-08T20:27:58.861Z,98665.47
2023-06-08T20:30:27.409Z,98642.34
2023-06-08T20:32:54.199Z,98586.63
2023-06-08T20:35:22.214Z,98523.03
2023-06-08T20:37:48.863Z,98506.53
2023-06-08T20:40:15.516Z,98491.66
2023-06-08T20:42:42.320Z,98477.22
2023-06-08T20:45:09.461Z,98454.94
2023-06-08T20:47:36.655Z,98454.53
2023-06-08T20:50:04.316Z,98427.75
2023-06-08T20:52:31.233Z,98446.69
2023-06-08T20:54:58.039Z,98465.25
2023-06-08T20:57:24.719Z,98489.59
2023-06-08T20:59:52.056Z,98470.63
2023-06-08T21:02:18.668Z,98445.63
2023-06-08T21:04:46.184Z,98459.28
2023-06-08T21:07:13.157Z,98445.44
2023-06-08T21:09:39.823Z,98440.53
2023-06-08T21:12:07.936Z,98372.66
2023-06-08T21:14:34.484Z,98386.28
2023-06-08T21:17:01.010Z,98358.84
2023-06-08T21:19:27.594Z,98361.72
2023-06-08T21:21:58.685Z,98379.88
2023-06-08T21:24:28.132Z,98327.31
2023-06-08T21:26:56.430Z,98294.78
2023-06-08T21:29:23.561Z,98223.25
2023-06-08T21:31:50.196Z,98231.88
2023-06-08T21:34:16.876Z,98179.16
2023-06-08T21:36:43.414Z,98180.34
2023-06-08T21:39:09.959Z,98072.06
2023-06-08T21:41:36.550Z,98023.09
2023-06-08T21:44:03.220Z,97947.19
2023-06-08T21:46:29.819Z,97911.97
2023-06-08T21:48:56.687Z,97908.69
2023-06-08T21:51:23.472Z,97871.28
2023-06-08T21:53:50.171Z,97855.25
2023-06-08T21:56:16.845Z,97836.75
2023-06-08T21:58:43.457Z,97811.28
2023-06-08T22:01:10.090Z,97785.06
2023-06-08T22:03:37.011Z,97754.63
2023-06-08T22:06:03.642Z,97718.28
2023-06-08T22:08:30.244Z,97679.06
2023-06-08T22:10:57.110Z,97633.91
2023-06-08T22:13:25.777Z,97644.50
2023-06-08T22:15:53.548Z,97638.00
2023-06-08T22:18:20.081Z,97578.09
2023-06-08T22:20:48.127Z,97549.56
2023-06-08T22:23:14.891Z,97516.06
2023-06-08T22:25:42.657Z,97476.59
2023-06-08T22:28:09.834Z,97469.34
2023-06-08T22:30:37.113Z,97449.44
2023-06-08T22:33:03.945Z,97408.34
2023-06-08T22:35:30.524Z,97361.94
2023-06-08T22:37:57.156Z,97337.72
2023-06-08T22:40:23.768Z,97302.53
2023-06-08T22:42:50.366Z,97262.22
2023-06-08T22:45:16.972Z,97230.44
2023-06-08T22:47:43.542Z,97206.72
2023-06-08T22:50:10.806Z,97192.81
2023-06-08T22:52:37.539Z,97174.00
2023-06-08T22:55:04.861Z,97155.56
2023-06-08T22:57:31.585Z,97153.34
2023-06-08T22:59:58.308Z,97142.94
2023-06-08T23:02:25.236Z,97130.88
2023-06-08T23:04:52.960Z,97108.66
2023-06-08T23:07:21.557Z,97116.66
2023-06-08T23:09:50.310Z,97096.81
2023-06-08T23:12:17.282Z,97084.13
2023-06-08T23:14:49.425Z,97084.72
2023-06-08T23:17:19.387Z,97069.00
2023-06-08T23:19:49.725Z,97071.88
2023-06-08T23:22:23.470Z,97070.66
2023-06-08T23:24:51.739Z,97059.72
2023-06-08T23:27:18.476Z,97039.97
2023-06-08T23:29:49.019Z,97039.09
2023-06-08T23:32:19.924Z,97023.94
2023-06-08T23:34:48.811Z,96998.81
2023-06-08T23:37:17.630Z,96988.72
2023-06-08T23:39:48.084Z,96990.69
2023-06-08T23:42:17.909Z,96983.03
2023-06-08T23:44:44.867Z,96988.81
2023-06-08T23:47:14.146Z,96964.50
2023-06-08T23:49:41.289Z,96968.56
2023-06-08T23:52:08.756Z,96968.69
2023-06-08T23:54:35.912Z,96973.00
2023-06-08T23:57:02.813Z,96979.59
2023-06-08T23:59:29.418Z,96969.28
